sensor_id;sensor_type;location;lat;lon;timestamp;pressure;altitude;pressure_sealevel;temperature;humidity
19526;BME280;9907;42.676;26.348;2023-08-17T00:00:03;98720.03;;;26.12;52.47
19526;BME280;9907;42.676;26.348;2023-08-17T00:02:35;98720.09;;;26.29;51.37
19526;BME280;9907;42.676;26.348;2023-08-17T00:05:01;98711.72;;;26.35;52.22
19526;BME280;9907;42.676;26.348;2023-08-17T00:07:26;98711.56;;;26.25;52.26
19526;BME280;9907;42.676;26.348;2023-08-17T00:09:51;98717.53;;;26.22;52.17
19526;BME280;9907;42.676;26.348;2023-08-17T00:12:17;98714.31;;;26.13;52.30
19526;BME280;9907;42.676;26.348;2023-08-17T00:14:42;98723.84;;;26.11;53.17
19526;BME280;9907;42.676;26.348;2023-08-17T00:17:08;98726.91;;;26.26;51.94
19526;BME280;9907;42.676;26.348;2023-08-17T00:19:33;98722.63;;;26.47;51.39
19526;BME280;9907;42.676;26.348;2023-08-17T00:21:59;98717.53;;;26.39;50.88
19526;BME280;9907;42.676;26.348;2023-08-17T00:24:24;98709.47;;;26.32;52.11
19526;BME280;9907;42.676;26.348;2023-08-17T00:26:50;98718.31;;;26.34;51.55
19526;BME280;9907;42.676;26.348;2023-08-17T00:29:15;98719.38;;;26.33;51.67
19526;BME280;9907;42.676;26.348;2023-08-17T00:31:41;98724.25;;;26.31;51.88
19526;BME280;9907;42.676;26.348;2023-08-17T00:34:07;98719.38;;;26.33;51.93
19526;BME280;9907;42.676;26.348;2023-08-17T00:36:35;98719.31;;;26.45;51.39
19526;BME280;9907;42.676;26.348;2023-08-17T00:39:01;98717.53;;;26.39;51.33
19526;BME280;9907;42.676;26.348;2023-08-17T00:41:26;98714.56;;;26.40;51.17
19526;BME280;9907;42.676;26.348;2023-08-17T00:43:53;98709.94;;;26.41;50.69
19526;BME280;9907;42.676;26.348;2023-08-17T00:46:19;98712.16;;;26.44;51.24
19526;BME280;9907;42.676;26.348;2023-08-17T00:48:47;98701.38;;;26.37;51.66
19526;BME280;9907;42.676;26.348;2023-08-17T00:51:13;98707.59;;;26.33;51.73
19526;BME280;9907;42.676;26.348;2023-08-17T00:53:39;98710.47;;;26.26;51.42
19526;BME280;9907;42.676;26.348;2023-08-17T00:56:05;98710.16;;;26.23;51.67
19526;BME280;9907;42.676;26.348;2023-08-17T00:58:31;98712.56;;;26.07;52.33
19526;BME280;9907;42.676;26.348;2023-08-17T01:00:57;98713.63;;;26.06;53.02
19526;BME280;9907;42.676;26.348;2023-08-17T01:03:23;98719.38;;;26.05;52.53
19526;BME280;9907;42.676;26.348;2023-08-17T01:05:49;98719.03;;;26.01;53.37
19526;BME280;9907;42.676;26.348;2023-08-17T01:08:15;98718.66;;;25.98;52.74
19526;BME280;9907;42.676;26.348;2023-08-17T01:11:00;98721.53;;;25.91;53.06
19526;BME280;9907;42.676;26.348;2023-08-17T01:16:39;98718.06;;;25.67;54.97
19526;BME280;9907;42.676;26.348;2023-08-17T01:19:08;98723.19;;;25.64;54.47
19526;BME280;9907;42.676;26.348;2023-08-17T01:21:48;98727.56;;;25.65;55.26
19526;BME280;9907;42.676;26.348;2023-08-17T01:24:14;98723.41;;;25.51;55.04
19526;BME280;9907;42.676;26.348;2023-08-17T01:26:40;98723.91;;;25.48;55.88
19526;BME280;9907;42.676;26.348;2023-08-17T01:29:06;98728.78;;;25.46;55.95
19526;BME280;9907;42.676;26.348;2023-08-17T01:31:39;98717.72;;;25.41;55.93
19526;BME280;9907;42.676;26.348;2023-08-17T01:34:08;98724.88;;;25.53;55.06
19526;BME280;9907;42.676;26.348;2023-08-17T01:36:42;98734.72;;;25.54;55.84
19526;BME280;9907;42.676;26.348;2023-08-17T01:39:10;98723.78;;;25.54;55.05
19526;BME280;9907;42.676;26.348;2023-08-17T01:41:37;98720.22;;;25.54;55.03
19526;BME280;9907;42.676;26.348;2023-08-17T01:44:04;98712.00;;;25.54;54.37
19526;BME280;9907;42.676;26.348;2023-08-17T01:46:32;98722.09;;;25.65;54.35
19526;BME280;9907;42.676;26.348;2023-08-17T01:48:58;98723.66;;;25.61;54.29
19526;BME280;9907;42.676;26.348;2023-08-17T01:51:24;98721.88;;;25.55;55.37
19526;BME280;9907;42.676;26.348;2023-08-17T01:53:50;98729.25;;;25.43;55.76
19526;BME280;9907;42.676;26.348;2023-08-17T01:56:15;98716.31;;;25.38;54.75
19526;BME280;9907;42.676;26.348;2023-08-17T01:58:41;98713.94;;;25.42;54.41
19526;BME280;9907;42.676;26.348;2023-08-17T02:01:06;98712.13;;;25.36;55.00
19526;BME280;9907;42.676;26.348;2023-08-17T02:03:32;98716.53;;;25.37;55.01
19526;BME280;9907;42.676;26.348;2023-08-17T02:05:58;98711.91;;;25.37;54.54
19526;BME280;9907;42.676;26.348;2023-08-17T02:08:24;98714.88;;;25.36;55.33
19526;BME280;9907;42.676;26.348;2023-08-17T02:10:50;98706.44;;;25.37;54.31
19526;BME280;9907;42.676;26.348;2023-08-17T02:13:15;98698.38;;;25.42;54.01
19526;BME280;9907;42.676;26.348;2023-08-17T02:15:41;98704.75;;;25.48;53.64
19526;BME280;9907;42.676;26.348;2023-08-17T02:18:09;98707.97;;;25.45;54.01
19526;BME280;9907;42.676;26.348;2023-08-17T02:20:34;98705.75;;;25.53;53.40
19526;BME280;9907;42.676;26.348;2023-08-17T02:23:00;98709.16;;;25.49;54.27
19526;BME280;9907;42.676;26.348;2023-08-17T02:25:25;98700.84;;;25.44;53.97
19526;BME280;9907;42.676;26.348;2023-08-17T02:27:52;98707.03;;;25.39;54.83
19526;BME280;9907;42.676;26.348;2023-08-17T02:30:18;98716.88;;;25.40;54.89
19526;BME280;9907;42.676;26.348;2023-08-17T02:32:43;98712.47;;;25.39;54.61
19526;BME280;9907;42.676;26.348;2023-08-17T02:35:08;98700.63;;;25.34;54.65
19526;BME280;9907;42.676;26.348;2023-08-17T02:37:34;98698.59;;;25.29;54.41
19526;BME280;9907;42.676;26.348;2023-08-17T02:39:59;98704.53;;;25.38;54.21
19526;BME280;9907;42.676;26.348;2023-08-17T02:42:25;98702.72;;;25.43;53.69
19526;BME280;9907;42.676;26.348;2023-08-17T02:44:50;98701.09;;;25.42;53.65
19526;BME280;9907;42.676;26.348;2023-08-17T02:47:16;98701.31;;;25.41;54.16
19526;BME280;9907;42.676;26.348;2023-08-17T02:49:44;98701.56;;;25.39;54.10
19526;BME280;9907;42.676;26.348;2023-08-17T02:52:09;98706.81;;;25.29;55.11
19526;BME280;9907;42.676;26.348;2023-08-17T02:54:35;98702.16;;;25.30;54.30
19526;BME280;9907;42.676;26.348;2023-08-17T02:57:00;98699.94;;;25.03;55.71
19526;BME280;9907;42.676;26.348;2023-08-17T02:59:26;98699.72;;;24.93;56.03
19526;BME280;9907;42.676;26.348;2023-08-17T03:01:53;98702.53;;;24.98;55.91
19526;BME280;9907;42.676;26.348;2023-08-17T03:04:18;98709.69;;;24.99;55.60
19526;BME280;9907;42.676;26.348;2023-08-17T03:06:44;98719.88;;;24.92;56.23
19526;BME280;9907;42.676;26.348;2023-08-17T03:09:09;98728.09;;;24.92;56.29
19526;BME280;9907;42.676;26.348;2023-08-17T03:11:36;98722.50;;;24.99;56.13
19526;BME280;9907;42.676;26.348;2023-08-17T03:14:01;98729.84;;;24.98;56.33
19526;BME280;9907;42.676;26.348;2023-08-17T03:16:28;98722.41;;;24.94;56.69
19526;BME280;9907;42.676;26.348;2023-08-17T03:18:55;98722.28;;;25.00;55.79
19526;BME280;9907;42.676;26.348;2023-08-17T03:21:21;98714.31;;;24.99;56.04
19526;BME280;9907;42.676;26.348;2023-08-17T03:23:47;98712.28;;;25.06;55.84
19526;BME280;9907;42.676;26.348;2023-08-17T03:26:13;98718.34;;;25.08;55.62
19526;BME280;9907;42.676;26.348;2023-08-17T03:28:38;98721.78;;;25.03;55.94
19526;BME280;9907;42.676;26.348;2023-08-17T03:31:04;98735.22;;;25.05;56.22
19526;BME280;9907;42.676;26.348;2023-08-17T03:33:29;98730.13;;;25.08;55.77
19526;BME280;9907;42.676;26.348;2023-08-17T03:35:55;98724.66;;;25.08;55.91
19526;BME280;9907;42.676;26.348;2023-08-17T03:38:20;98725.84;;;25.12;55.65
19526;BME280;9907;42.676;26.348;2023-08-17T03:40:48;98733.44;;;25.10;56.31
19526;BME280;9907;42.676;26.348;2023-08-17T03:43:14;98724.66;;;25.08;56.16
19526;BME280;9907;42.676;26.348;2023-08-17T03:45:42;98723.91;;;25.13;56.37
19526;BME280;9907;42.676;26.348;2023-08-17T03:48:08;98714.38;;;25.39;55.69
19526;BME280;9907;42.676;26.348;2023-08-17T03:50:34;98717.75;;;25.52;54.86
19526;BME280;9907;42.676;26.348;2023-08-17T03:52:59;98726.28;;;25.56;55.15
19526;BME280;9907;42.676;26.348;2023-08-17T03:55:25;98729.94;;;25.50;55.54
19526;BME280;9907;42.676;26.348;2023-08-17T03:57:51;98733.66;;;25.44;55.42
19526;BME280;9907;42.676;26.348;2023-08-17T04:00:16;98721.78;;;25.38;55.69
19526;BME280;9907;42.676;26.348;2023-08-17T04:02:42;98734.00;;;25.36;55.47
19526;BME280;9907;42.676;26.348;2023-08-17T04:05:08;98744.09;;;25.35;56.54
19526;BME280;9907;42.676;26.348;2023-08-17T04:07:33;98731.75;;;25.33;57.09
19526;BME280;9907;42.676;26.348;2023-08-17T04:10:05;98737.72;;;25.30;55.98
19526;BME280;9907;42.676;26.348;2023-08-17T04:12:31;98736.38;;;25.20;57.21
19526;BME280;9907;42.676;26.348;2023-08-17T04:14:56;98741.63;;;25.22;55.88
19526;BME280;9907;42.676;26.348;2023-08-17T04:17:22;98728.06;;;25.39;54.88
19526;BME280;9907;42.676;26.348;2023-08-17T04:19:48;98731.63;;;25.39;55.23
19526;BME280;9907;42.676;26.348;2023-08-17T04:22:13;98727.13;;;25.33;56.04
19526;BME280;9907;42.676;26.348;2023-08-17T04:24:39;98743.19;;;25.30;55.66
19526;BME280;9907;42.676;26.348;2023-08-17T04:27:04;98742.13;;;25.31;56.07
19526;BME280;9907;42.676;26.348;2023-08-17T04:29:31;98743.66;;;25.38;55.99
19526;BME280;9907;42.676;26.348;2023-08-17T04:31:57;98733.09;;;25.53;55.29
19526;BME280;9907;42.676;26.348;2023-08-17T04:34:23;98730.19;;;25.72;55.45
19526;BME280;9907;42.676;26.348;2023-08-17T04:36:48;98738.78;;;25.92;54.98
19526;BME280;9907;42.676;26.348;2023-08-17T04:39:14;98734.69;;;26.06;54.71
19526;BME280;9907;42.676;26.348;2023-08-17T04:41:39;98727.19;;;26.41;50.88
19526;BME280;9907;42.676;26.348;2023-08-17T04:44:05;98745.88;;;26.61;50.58
19526;BME280;9907;42.676;26.348;2023-08-17T04:46:30;98743.94;;;26.90;45.25
19526;BME280;9907;42.676;26.348;2023-08-17T04:48:56;98747.88;;;27.49;42.53
19526;BME280;9907;42.676;26.348;2023-08-17T04:51:21;98748.66;;;27.66;41.31
19526;BME280;9907;42.676;26.348;2023-08-17T04:53:47;98756.50;;;27.79;41.34
19526;BME280;9907;42.676;26.348;2023-08-17T04:56:12;98745.84;;;28.04;41.88
19526;BME280;9907;42.676;26.348;2023-08-17T04:58:37;98737.28;;;28.23;41.45
19526;BME280;9907;42.676;26.348;2023-08-17T05:01:03;98737.56;;;28.53;40.25
19526;BME280;9907;42.676;26.348;2023-08-17T05:03:28;98745.47;;;28.44;40.54
19526;BME280;9907;42.676;26.348;2023-08-17T05:05:54;98734.06;;;28.58;40.15
19526;BME280;9907;42.676;26.348;2023-08-17T05:08:20;98729.69;;;28.88;39.95
19526;BME280;9907;42.676;26.348;2023-08-17T05:10:47;98733.41;;;29.04;40.76
19526;BME280;9907;42.676;26.348;2023-08-17T05:13:12;98729.34;;;29.17;40.70
19526;BME280;9907;42.676;26.348;2023-08-17T05:15:38;98728.28;;;29.23;41.43
19526;BME280;9907;42.676;26.348;2023-08-17T05:18:04;98721.16;;;29.27;40.12
19526;BME280;9907;42.676;26.348;2023-08-17T05:20:29;98719.03;;;29.34;41.77
19526;BME280;9907;42.676;26.348;2023-08-17T05:22:55;98716.59;;;29.37;41.38
19526;BME280;9907;42.676;26.348;2023-08-17T05:25:21;98741.25;;;29.27;41.46
19526;BME280;9907;42.676;26.348;2023-08-17T05:27:47;98724.59;;;29.49;41.39
19526;BME280;9907;42.676;26.348;2023-08-17T05:30:14;98720.50;;;29.52;40.38
19526;BME280;9907;42.676;26.348;2023-08-17T05:32:40;98714.69;;;29.43;41.09
19526;BME280;9907;42.676;26.348;2023-08-17T05:35:06;98726.69;;;29.27;41.80
19526;BME280;9907;42.676;26.348;2023-08-17T05:37:31;98718.53;;;29.05;42.20
19526;BME280;9907;42.676;26.348;2023-08-17T05:39:57;98742.84;;;28.86;42.17
19526;BME280;9907;42.676;26.348;2023-08-17T05:42:22;98729.50;;;28.68;42.42
19526;BME280;9907;42.676;26.348;2023-08-17T05:44:48;98721.84;;;28.70;43.53
19526;BME280;9907;42.676;26.348;2023-08-17T05:47:13;98745.47;;;29.03;42.64
19526;BME280;9907;42.676;26.348;2023-08-17T05:49:40;98738.75;;;29.26;42.89
19526;BME280;9907;42.676;26.348;2023-08-17T05:52:06;98728.47;;;29.48;42.45
19526;BME280;9907;42.676;26.348;2023-08-17T05:54:32;98745.28;;;29.57;43.01
19526;BME280;9907;42.676;26.348;2023-08-17T05:56:57;98718.63;;;29.62;42.73
19526;BME280;9907;42.676;26.348;2023-08-17T05:59:23;98716.50;;;29.74;42.71
19526;BME280;9907;42.676;26.348;2023-08-17T06:01:48;98723.63;;;29.75;42.30
19526;BME280;9907;42.676;26.348;2023-08-17T06:04:13;98721.75;;;29.81;42.73
19526;BME280;9907;42.676;26.348;2023-08-17T06:06:39;98720.97;;;29.85;42.54
19526;BME280;9907;42.676;26.348;2023-08-17T06:09:04;98732.22;;;29.84;42.53
19526;BME280;9907;42.676;26.348;2023-08-17T06:11:32;98738.66;;;30.00;42.78
19526;BME280;9907;42.676;26.348;2023-08-17T06:13:58;98744.69;;;30.02;42.32
19526;BME280;9907;42.676;26.348;2023-08-17T06:16:23;98732.84;;;29.96;42.90
19526;BME280;9907;42.676;26.348;2023-08-17T06:18:49;98718.84;;;30.13;42.13
19526;BME280;9907;42.676;26.348;2023-08-17T06:21:15;98728.47;;;30.05;42.12
19526;BME280;9907;42.676;26.348;2023-08-17T06:23:40;98746.97;;;30.25;42.32
19526;BME280;9907;42.676;26.348;2023-08-17T06:26:06;98762.47;;;30.46;42.14
19526;BME280;9907;42.676;26.348;2023-08-17T06:28:33;98737.44;;;30.58;41.49
19526;BME280;9907;42.676;26.348;2023-08-17T06:30:58;98743.22;;;30.61;41.57
19526;BME280;9907;42.676;26.348;2023-08-17T06:33:24;98743.22;;;30.66;41.70
19526;BME280;9907;42.676;26.348;2023-08-17T06:35:49;98749.25;;;30.53;41.96
19526;BME280;9907;42.676;26.348;2023-08-17T06:38:15;98748.16;;;30.44;42.24
19526;BME280;9907;42.676;26.348;2023-08-17T06:40:40;98756.97;;;30.56;42.46
19526;BME280;9907;42.676;26.348;2023-08-17T06:43:06;98749.00;;;30.65;42.54
19526;BME280;9907;42.676;26.348;2023-08-17T06:45:32;98736.91;;;30.96;42.77
19526;BME280;9907;42.676;26.348;2023-08-17T06:47:58;98744.34;;;31.06;41.62
19526;BME280;9907;42.676;26.348;2023-08-17T06:50:24;98723.66;;;30.93;41.87
19526;BME280;9907;42.676;26.348;2023-08-17T06:52:50;98737.16;;;30.95;42.01
19526;BME280;9907;42.676;26.348;2023-08-17T06:55:15;98747.38;;;30.74;41.94
19526;BME280;9907;42.676;26.348;2023-08-17T06:57:42;98752.59;;;30.70;42.77
19526;BME280;9907;42.676;26.348;2023-08-17T07:00:08;98749.59;;;30.82;42.77
19526;BME280;9907;42.676;26.348;2023-08-17T07:02:34;98731.94;;;30.88;42.54
19526;BME280;9907;42.676;26.348;2023-08-17T07:05:00;98741.88;;;31.14;41.94
19526;BME280;9907;42.676;26.348;2023-08-17T07:07:25;98737.47;;;30.98;42.10
19526;BME280;9907;42.676;26.348;2023-08-17T07:09:51;98765.84;;;30.88;41.94
19526;BME280;9907;42.676;26.348;2023-08-17T07:12:16;98727.50;;;30.87;42.22
19526;BME280;9907;42.676;26.348;2023-08-17T07:14:42;98737.72;;;30.66;43.15
19526;BME280;9907;42.676;26.348;2023-08-17T07:17:08;98718.97;;;30.68;42.88
19526;BME280;9907;42.676;26.348;2023-08-17T07:19:34;98728.34;;;30.62;42.87
19526;BME280;9907;42.676;26.348;2023-08-17T07:21:59;98731.63;;;30.49;43.52
19526;BME280;9907;42.676;26.348;2023-08-17T07:24:25;98737.59;;;30.21;44.75
19526;BME280;9907;42.676;26.348;2023-08-17T07:26:50;98736.50;;;30.12;44.39
19526;BME280;9907;42.676;26.348;2023-08-17T07:29:16;98737.59;;;30.21;44.00
19526;BME280;9907;42.676;26.348;2023-08-17T07:31:41;98726.06;;;30.29;44.76
19526;BME280;9907;42.676;26.348;2023-08-17T07:34:06;98729.44;;;30.61;43.99
19526;BME280;9907;42.676;26.348;2023-08-17T07:36:33;98717.88;;;30.69;43.77
19526;BME280;9907;42.676;26.348;2023-08-17T07:38:59;98727.00;;;31.00;43.40
19526;BME280;9907;42.676;26.348;2023-08-17T07:41:25;98727.81;;;31.06;42.97
19526;BME280;9907;42.676;26.348;2023-08-17T07:43:50;98718.41;;;30.91;43.22
19526;BME280;9907;42.676;26.348;2023-08-17T07:46:16;98721.47;;;30.85;42.95
19526;BME280;9907;42.676;26.348;2023-08-17T07:48:41;98724.75;;;30.77;43.17
19526;BME280;9907;42.676;26.348;2023-08-17T07:51:07;98724.50;;;30.88;42.87
19526;BME280;9907;42.676;26.348;2023-08-17T07:53:34;98715.63;;;31.27;43.09
19526;BME280;9907;42.676;26.348;2023-08-17T07:55:59;98725.28;;;31.34;42.86
19526;BME280;9907;42.676;26.348;2023-08-17T07:58:25;98711.44;;;31.50;41.87
19526;BME280;9907;42.676;26.348;2023-08-17T08:00:50;98708.72;;;31.34;42.13
19526;BME280;9907;42.676;26.348;2023-08-17T08:03:16;98708.47;;;31.16;42.17
19526;BME280;9907;42.676;26.348;2023-08-17T08:05:41;98706.25;;;31.33;42.05
19526;BME280;9907;42.676;26.348;2023-08-17T08:08:07;98707.09;;;31.33;42.19
19526;BME280;9907;42.676;26.348;2023-08-17T08:10:32;98701.84;;;31.32;42.22
19526;BME280;9907;42.676;26.348;2023-08-17T08:12:58;98694.34;;;31.53;41.66
19526;BME280;9907;42.676;26.348;2023-08-17T08:15:23;98707.88;;;31.54;41.00
19526;BME280;9907;42.676;26.348;2023-08-17T08:17:51;98703.50;;;31.23;41.59
19526;BME280;9907;42.676;26.348;2023-08-17T08:20:17;98709.03;;;31.13;41.90
19526;BME280;9907;42.676;26.348;2023-08-17T08:22:43;98706.00;;;31.19;42.38
19526;BME280;9907;42.676;26.348;2023-08-17T08:25:08;98721.13;;;31.42;40.58
19526;BME280;9907;42.676;26.348;2023-08-17T08:27:33;98720.91;;;31.18;40.50
19526;BME280;9907;42.676;26.348;2023-08-17T08:29:59;98736.34;;;30.89;40.40
19526;BME280;9907;42.676;26.348;2023-08-17T08:32:24;98717.31;;;30.87;40.58
19526;BME280;9907;42.676;26.348;2023-08-17T08:34:50;98746.53;;;30.73;41.25
19526;BME280;9907;42.676;26.348;2023-08-17T08:37:15;98744.31;;;30.75;40.92
19526;BME280;9907;42.676;26.348;2023-08-17T08:39:51;98754.81;;;30.73;39.83
19526;BME280;9907;42.676;26.348;2023-08-17T08:42:18;98745.47;;;31.00;39.87
19526;BME280;9907;42.676;26.348;2023-08-17T08:44:44;98749.59;;;31.07;40.22
19526;BME280;9907;42.676;26.348;2023-08-17T08:47:11;98747.94;;;31.11;40.33
19526;BME280;9907;42.676;26.348;2023-08-17T08:49:40;98748.75;;;31.37;40.19
19526;BME280;9907;42.676;26.348;2023-08-17T08:52:12;98743.19;;;31.42;39.38
19526;BME280;9907;42.676;26.348;2023-08-17T08:54:41;98745.94;;;31.57;39.60
19526;BME280;9907;42.676;26.348;2023-08-17T08:57:13;98744.81;;;31.73;39.92
19526;BME280;9907;42.676;26.348;2023-08-17T08:59:41;98749.53;;;31.58;39.13
19526;BME280;9907;42.676;26.348;2023-08-17T09:02:15;98745.94;;;31.47;39.32
19526;BME280;9907;42.676;26.348;2023-08-17T09:04:46;98736.56;;;31.58;39.58
19526;BME280;9907;42.676;26.348;2023-08-17T09:07:12;98729.94;;;31.59;39.52
19526;BME280;9907;42.676;26.348;2023-08-17T09:09:39;98752.88;;;31.55;39.40
19526;BME280;9907;42.676;26.348;2023-08-17T09:12:07;98736.56;;;31.48;40.13
19526;BME280;9907;42.676;26.348;2023-08-17T09:14:34;98727.19;;;31.59;40.05
19526;BME280;9907;42.676;26.348;2023-08-17T09:17:00;98736.78;;;31.77;39.70
19526;BME280;9907;42.676;26.348;2023-08-17T09:19:25;98731.84;;;31.64;39.93
19526;BME280;9907;42.676;26.348;2023-08-17T09:21:51;98728.81;;;31.70;40.07
19526;BME280;9907;42.676;26.348;2023-08-17T09:24:17;98733.16;;;31.86;38.87
19526;BME280;9907;42.676;26.348;2023-08-17T09:26:42;98740.06;;;31.84;38.82
19526;BME280;9907;42.676;26.348;2023-08-17T09:29:18;98736.47;;;31.78;38.67
19526;BME280;9907;42.676;26.348;2023-08-17T09:31:44;98749.44;;;31.88;40.00
19526;BME280;9907;42.676;26.348;2023-08-17T09:34:10;98736.53;;;31.68;40.18
19526;BME280;9907;42.676;26.348;2023-08-17T09:36:39;98733.81;;;31.58;40.12
19526;BME280;9907;42.676;26.348;2023-08-17T09:39:05;98736.78;;;31.72;40.58
19526;BME280;9907;42.676;26.348;2023-08-17T09:41:30;98748.13;;;31.65;40.73
19526;BME280;9907;42.676;26.348;2023-08-17T09:44:03;98731.00;;;31.73;40.75
19526;BME280;9907;42.676;26.348;2023-08-17T09:46:29;98752.25;;;31.78;41.18
19526;BME280;9907;42.676;26.348;2023-08-17T09:48:55;98736.72;;;31.87;40.57
19526;BME280;9907;42.676;26.348;2023-08-17T09:51:21;98737.56;;;31.82;41.27
19526;BME280;9907;42.676;26.348;2023-08-17T09:53:51;98733.81;;;31.58;42.02
19526;BME280;9907;42.676;26.348;2023-08-17T09:56:20;98736.00;;;31.51;42.25
19526;BME280;9907;42.676;26.348;2023-08-17T09:58:47;98741.56;;;31.41;42.90
19526;BME280;9907;42.676;26.348;2023-08-17T10:01:13;98729.41;;;31.42;42.39
19526;BME280;9907;42.676;26.348;2023-08-17T10:03:43;98745.44;;;31.30;42.55
19526;BME280;9907;42.676;26.348;2023-08-17T10:06:13;98744.88;;;31.23;42.42
19526;BME280;9907;42.676;26.348;2023-08-17T10:08:49;98725.84;;;31.36;42.80
19526;BME280;9907;42.676;26.348;2023-08-17T10:11:19;98729.97;;;31.44;41.91
19526;BME280;9907;42.676;26.348;2023-08-17T10:14:09;98726.91;;;31.46;42.98
19526;BME280;9907;42.676;26.348;2023-08-17T10:16:46;98732.97;;;31.53;43.18
19526;BME280;9907;42.676;26.348;2023-08-17T10:19:24;98744.84;;;31.58;43.54
19526;BME280;9907;42.676;26.348;2023-08-17T10:21:56;98737.97;;;31.35;43.61
19526;BME280;9907;42.676;26.348;2023-08-17T10:24:26;98738.78;;;31.46;43.10
19526;BME280;9907;42.676;26.348;2023-08-17T10:26:52;98724.97;;;31.46;44.17
19526;BME280;9907;42.676;26.348;2023-08-17T10:29:21;98727.47;;;31.43;43.05
19526;BME280;9907;42.676;26.348;2023-08-17T10:31:48;98737.72;;;31.37;43.34
19526;BME280;9907;42.676;26.348;2023-08-17T10:34:14;98737.09;;;31.45;42.80
19526;BME280;9907;42.676;26.348;2023-08-17T10:36:41;98727.72;;;31.56;43.38
19526;BME280;9907;42.676;26.348;2023-08-17T10:39:33;98724.97;;;31.61;43.53
19526;BME280;9907;42.676;26.348;2023-08-17T10:42:00;98727.19;;;31.59;43.31
19526;BME280;9907;42.676;26.348;2023-08-17T10:47:28;98734.69;;;31.33;44.90
19526;BME280;9907;42.676;26.348;2023-08-17T10:50:00;98731.59;;;31.45;44.74
19526;BME280;9907;42.676;26.348;2023-08-17T10:54:53;98739.88;;;31.50;44.54
19526;BME280;9907;42.676;26.348;2023-08-17T10:57:29;98720.84;;;31.54;44.41
19526;BME280;9907;42.676;26.348;2023-08-17T11:00:15;98732.16;;;31.42;43.62
19526;BME280;9907;42.676;26.348;2023-08-17T11:02:56;98724.44;;;31.34;44.34
19526;BME280;9907;42.676;26.348;2023-08-17T11:05:34;98709.50;;;31.50;43.89
19526;BME280;9907;42.676;26.348;2023-08-17T11:08:01;98748.75;;;31.52;43.93
19526;BME280;9907;42.676;26.348;2023-08-17T11:10:28;98724.97;;;31.46;43.88
19526;BME280;9907;42.676;26.348;2023-08-17T11:12:55;98696.84;;;31.39;43.89
19526;BME280;9907;42.676;26.348;2023-08-17T11:15:25;98691.88;;;31.41;44.07
19526;BME280;9907;42.676;26.348;2023-08-17T11:17:52;98702.38;;;31.44;44.01
19526;BME280;9907;42.676;26.348;2023-08-17T11:20:17;98693.25;;;31.44;43.76
19526;BME280;9907;42.676;26.348;2023-08-17T11:22:43;98698.47;;;31.45;43.25
19526;BME280;9907;42.676;26.348;2023-08-17T11:25:08;98687.16;;;31.47;42.75
19526;BME280;9907;42.676;26.348;2023-08-17T11:27:34;98684.41;;;31.47;42.46
19526;BME280;9907;42.676;26.348;2023-08-17T11:30:00;98684.97;;;31.44;42.87
19526;BME280;9907;42.676;26.348;2023-08-17T11:32:26;98692.69;;;31.42;43.10
19526;BME280;9907;42.676;26.348;2023-08-17T11:34:51;98686.94;;;31.33;43.34
19526;BME280;9907;42.676;26.348;2023-08-17T11:37:17;98680.03;;;31.30;43.73
19526;BME280;9907;42.676;26.348;2023-08-17T11:39:42;98680.31;;;31.29;43.35
19526;BME280;9907;42.676;26.348;2023-08-17T11:42:08;98688.59;;;31.29;43.20
19526;BME280;9907;42.676;26.348;2023-08-17T11:44:33;98675.34;;;31.31;43.49
19526;BME280;9907;42.676;26.348;2023-08-17T11:46:59;98663.50;;;31.25;43.83
19526;BME280;9907;42.676;26.348;2023-08-17T11:49:25;98672.63;;;31.26;43.66
19526;BME280;9907;42.676;26.348;2023-08-17T11:51:54;98672.00;;;31.34;43.40
19526;BME280;9907;42.676;26.348;2023-08-17T11:54:25;98677.53;;;31.39;43.83
19526;BME280;9907;42.676;26.348;2023-08-17T11:56:50;98668.72;;;31.37;43.75
19526;BME280;9907;42.676;26.348;2023-08-17T11:59:16;98666.50;;;31.39;43.81
19526;BME280;9907;42.676;26.348;2023-08-17T12:01:44;98660.44;;;31.37;44.00
19526;BME280;9907;42.676;26.348;2023-08-17T12:04:10;98664.56;;;31.45;43.89
19526;BME280;9907;42.676;26.348;2023-08-17T12:06:43;98633.63;;;31.48;43.86
19526;BME280;9907;42.676;26.348;2023-08-17T12:09:12;98664.81;;;31.48;43.57
19526;BME280;9907;42.676;26.348;2023-08-17T12:11:40;98668.94;;;31.51;42.84
19526;BME280;9907;42.676;26.348;2023-08-17T12:14:10;98662.88;;;31.54;43.20
19526;BME280;9907;42.676;26.348;2023-08-17T12:16:48;98672.53;;;31.56;43.95
19526;BME280;9907;42.676;26.348;2023-08-17T12:19:15;98661.22;;;31.53;44.43
19526;BME280;9907;42.676;26.348;2023-08-17T12:21:42;98652.13;;;31.52;43.70
19526;BME280;9907;42.676;26.348;2023-08-17T12:24:09;98667.56;;;31.63;44.10
19526;BME280;9907;42.676;26.348;2023-08-17T12:26:41;98657.91;;;31.51;43.95
19526;BME280;9907;42.676;26.348;2023-08-17T12:29:06;98653.50;;;31.55;43.84
19526;BME280;9907;42.676;26.348;2023-08-17T12:31:32;98652.09;;;31.62;44.07
19526;BME280;9907;42.676;26.348;2023-08-17T12:33:59;98634.94;;;31.65;43.56
19526;BME280;9907;42.676;26.348;2023-08-17T12:36:24;98638.25;;;31.67;44.57
19526;BME280;9907;42.676;26.348;2023-08-17T12:38:50;98639.88;;;31.73;43.80
19526;BME280;9907;42.676;26.348;2023-08-17T12:41:15;98658.91;;;31.75;44.61
19526;BME280;9907;42.676;26.348;2023-08-17T12:43:41;98637.41;;;31.72;43.52
19526;BME280;9907;42.676;26.348;2023-08-17T12:46:06;98633.28;;;31.69;43.56
19526;BME280;9907;42.676;26.348;2023-08-17T12:48:32;98646.50;;;31.72;44.14
19526;BME280;9907;42.676;26.348;2023-08-17T12:50:57;98637.38;;;31.77;44.17
19526;BME280;9907;42.676;26.348;2023-08-17T12:53:23;98641.81;;;31.78;44.29
19526;BME280;9907;42.676;26.348;2023-08-17T12:55:48;98625.19;;;31.83;44.41
19526;BME280;9907;42.676;26.348;2023-08-17T12:58:14;98617.72;;;31.83;44.06
19526;BME280;9907;42.676;26.348;2023-08-17T13:00:39;98639.00;;;31.83;43.83
19526;BME280;9907;42.676;26.348;2023-08-17T13:03:05;98637.59;;;31.85;44.18
19526;BME280;9907;42.676;26.348;2023-08-17T13:05:31;98645.84;;;31.91;42.93